Terminal Aerodrome Forecast
Issued by NWS Wichita, KS

Home | Current Version | Previous Version | Text Only | Print | Product List | Glossary On
Versions: 1 2 3 4 5 6 7 8 9 10 11 12 13 14 15
000
FTUS43 KICT 061141
TAFICT
TAF
KICT 061141Z 0612/0712 15013KT P6SM VCTS BKN008CB BKN050
      TEMPO 0612/0613 -TSRA BKN015CB
     FM061500 16016G24KT P6SM VCTS OVC015CB
     FM062000 17015G22KT P6SM OVC015=

USA.gov is the U.S. government's official web portal to all federal, state and local government web resources and services.